Time;durP1;ratioP1;P1;durP2;ratioP2;P2;SDS_P1;SDS_P2;PMS_P1;PMS_P2;Temp;Humidity;BMP_temperature;BMP_pressure;BME280_temperature;BME280_humidity;BME280_pressure;Samples;Min_cycle;Max_cycle;Signal;HPM_P1;HPM_P2
2022/12/10 00:04:57;;;;;;;3.83;2.08;;;;;;;18.86;37.92;100769.66;16123237;19;130000;-40
2022/12/10 00:10:18;;;;;;;4.70;1.85;;;;;;;18.81;38.24;100773.19;16117548;19;129694;-41
2022/12/10 00:15:40;;;;;;;3.92;2.40;;;;;;;18.78;38.13;100768.13;16120194;19;129429;-42
2022/12/10 00:21:04;;;;;;;3.65;2.05;;;;;;;18.73;38.07;100762.53;16120229;19;129711;-40
2022/12/10 00:26:29;;;;;;;3.22;1.65;;;;;;;18.70;37.78;100776.88;16118754;19;129592;-41
2022/12/10 00:31:51;;;;;;;4.63;1.83;;;;;;;18.66;38.11;100767.38;16121587;19;130256;-40
2022/12/10 00:37:12;;;;;;;3.58;1.92;;;;;;;18.63;38.20;100765.94;16120110;19;131112;-41
2022/12/10 00:42:34;;;;;;;3.42;2.13;;;;;;;18.60;38.08;100763.66;16124046;19;130012;-40
2022/12/10 00:47:56;;;;;;;6.18;1.77;;;;;;;18.58;38.06;100763.09;16121771;19;130402;-41
2022/12/10 00:53:18;;;;;;;3.15;2.03;;;;;;;18.54;37.81;100759.16;16121084;19;129663;-45
2022/12/10 00:58:40;;;;;;;4.80;2.10;;;;;;;18.52;37.92;100755.78;16119490;19;129207;-41
2022/12/10 01:04:05;;;;;;;3.47;1.80;;;;;;;18.49;38.03;100765.44;16116475;19;129685;-40
2022/12/10 01:09:29;;;;;;;3.77;2.03;;;;;;;18.46;38.00;100766.75;16116686;19;130461;-41
2022/12/10 01:14:50;;;;;;;3.10;2.20;;;;;;;18.46;38.12;100772.28;16120564;19;129581;-40
2022/12/10 01:20:12;;;;;;;2.75;1.80;;;;;;;18.42;37.76;100776.66;16118437;19;130492;-40
2022/12/10 01:25:34;;;;;;;2.85;2.00;;;;;;;18.40;37.87;100784.38;16136459;19;134267;-40
2022/12/10 01:31:01;;;;;;;3.40;1.77;;;;;;;18.38;38.03;100788.47;16134520;19;131468;-40
2022/12/10 01:36:26;;;;;;;2.33;1.85;;;;;;;18.35;37.93;100803.63;16131147;19;129764;-43
2022/12/10 01:41:54;;;;;;;4.82;1.98;;;;;;;18.33;38.02;100800.28;16133378;19;131756;-42
2022/12/10 01:47:15;;;;;;;3.20;1.85;;;;;;;18.31;38.08;100813.53;16132448;19;129785;-40
2022/12/10 01:52:38;;;;;;;2.70;2.00;;;;;;;18.27;38.05;100804.03;16133043;19;129831;-40
2022/12/10 01:58:00;;;;;;;3.65;2.22;;;;;;;18.24;37.92;100812.84;16131029;19;129894;-40
2022/12/10 02:03:38;;;;;;;3.03;1.80;;;;;;;18.24;37.91;100812.84;16130355;19;130110;-42
2022/12/10 02:09:16;;;;;;;2.97;2.05;;;;;;;18.21;37.92;100813.34;16132662;19;130237;-40
2022/12/10 02:14:49;;;;;;;3.92;2.13;;;;;;;18.15;38.15;100824.31;16131849;19;129542;-40
2022/12/10 02:20:20;;;;;;;3.15;2.13;;;;;;;18.15;37.77;100832.59;16128952;19;129858;-41
2022/12/10 02:26:00;;;;;;;3.25;2.05;;;;;;;18.13;37.87;100823.69;16126097;19;129436;-40
2022/12/10 02:31:28;;;;;;;1.90;1.50;;;;;;;18.10;37.88;100821.41;16126390;19;130125;-42
2022/12/10 02:36:54;;;;;;;2.95;2.25;;;;;;;18.08;37.90;100826.38;16128624;19;130832;-40
2022/12/10 02:42:17;;;;;;;;;;;;;;;18.03;38.21;100829.03;16127270;19;129714;-40
2022/12/10 02:47:39;;;;;;;3.20;1.98;;;;;;;18.03;37.75;100806.88;16130159;19;129872;-40
2022/12/10 02:53:01;;;;;;;2.80;1.90;;;;;;;18.02;37.95;100809.91;16127200;19;129354;-41
2022/12/10 02:58:42;;;;;;;1.92;1.65;;;;;;;18.01;38.02;100806.28;16122636;19;130029;-40
2022/12/10 03:04:14;;;;;;;2.75;1.70;;;;;;;17.99;37.90;100822.28;16125937;19;129122;-41
2022/12/10 03:09:50;;;;;;;1.85;1.60;;;;;;;17.98;37.77;100831.69;16128342;19;129507;-40
2022/12/10 03:15:14;;;;;;;2.25;1.90;;;;;;;17.95;37.84;100821.94;16124046;19;128971;-40
2022/12/10 03:20:42;;;;;;;1.83;1.52;;;;;;;17.94;37.84;100820.25;16125311;19;131302;-41
2022/12/10 03:26:06;;;;;;;1.92;1.50;;;;;;;17.92;38.11;100821.59;16127021;19;130148;-41
2022/12/10 03:31:29;;;;;;;1.92;1.67;;;;;;;17.90;38.13;100819.09;16123079;19;129849;-43
2022/12/10 03:36:52;;;;;;;2.20;1.65;;;;;;;17.89;37.63;100824.84;16125701;19;129504;-40
2022/12/10 03:42:14;;;;;;;2.05;1.50;;;;;;;17.85;37.88;100822.56;16126547;19;134256;-40
2022/12/10 03:47:36;;;;;;;1.63;1.50;;;;;;;17.84;38.10;100818.13;16125215;19;129530;-40
2022/12/10 03:52:58;;;;;;;2.85;1.52;;;;;;;17.82;37.75;100820.31;16128782;19;130685;-42
2022/12/10 03:58:19;;;;;;;1.75;1.55;;;;;;;17.80;37.79;100803.09;16122448;19;130735;-40
2022/12/10 04:03:42;;;;;;;2.15;1.42;;;;;;;17.79;38.06;100795.88;16125559;19;129507;-40
2022/12/10 04:09:04;;;;;;;2.50;1.75;;;;;;;17.78;37.99;100796.97;16124349;19;130234;-40
2022/12/10 04:26:51;;;;;;;1.40;1.30;;;;;;;17.74;38.02;100804.06;16120740;19;129492;-41
2022/12/10 04:31:29;;;;;;;2.35;1.70;;;;;;;17.71;37.75;100818.41;16121782;19;130599;-40
2022/12/10 04:36:51;;;;;;;2.45;1.63;;;;;;;17.70;37.76;100827.78;16119737;19;130981;-46
2022/12/10 04:42:13;;;;;;;2.58;1.70;;;;;;;17.68;38.12;100822.47;16119295;19;129723;-40
2022/12/10 04:47:34;;;;;;;1.92;1.67;;;;;;;17.67;38.07;100831.03;16121424;19;130286;-40
2022/12/10 04:52:56;;;;;;;2.58;1.67;;;;;;;17.66;38.09;100835.69;16120868;19;130003;-41
2022/12/10 04:58:18;;;;;;;2.10;1.70;;;;;;;17.65;37.76;100844.25;16131735;19;129426;-41
2022/12/10 05:03:40;;;;;;;2.00;1.60;;;;;;;17.63;37.77;100840.88;16135635;19;129468;-41
2022/12/10 05:09:03;;;;;;;2.50;1.92;;;;;;;17.62;37.84;100839.19;16135345;19;130920;-40
2022/12/10 05:14:25;;;;;;;2.20;1.98;;;;;;;17.58;37.64;100836.06;16133039;19;130243;-40
2022/12/10 05:19:47;;;;;;;3.00;1.90;;;;;;;17.57;37.97;100825.25;16133248;19;129746;-39
2022/12/10 05:25:09;;;;;;;2.70;1.92;;;;;;;17.56;37.88;100829.13;16131266;19;129821;-42
2022/12/10 05:30:34;;;;;;;2.30;1.67;;;;;;;17.56;38.00;100829.13;16133347;19;130921;-41
2022/12/10 05:35:57;;;;;;;;;;;;;;;17.51;38.01;100836.16;16132012;19;129935;-40
2022/12/10 05:41:24;;;;;;;2.50;1.75;;;;;;;17.53;37.74;100842.31;16133869;19;134482;-40
2022/12/10 05:46:46;;;;;;;3.72;2.17;;;;;;;17.50;37.92;100836.41;16132308;19;130701;-40
2022/12/10 05:52:08;;;;;;;2.75;1.92;;;;;;;17.48;37.57;100838.56;16133611;19;129859;-40
2022/12/10 05:57:30;;;;;;;3.13;2.22;;;;;;;17.47;37.59;100846.06;16134036;19;130203;-41
2022/12/10 06:02:52;;;;;;;3.00;2.03;;;;;;;17.46;37.66;100841.59;16132022;19;129684;-40
2022/12/10 06:08:13;;;;;;;2.53;1.83;;;;;;;17.46;37.58;100846.28;16125863;19;131150;-40
2022/12/10 06:13:36;;;;;;;2.20;1.90;;;;;;;17.44;37.52;100849.28;16131201;19;129480;-40
2022/12/10 06:18:58;;;;;;;2.38;2.03;;;;;;;17.43;37.62;100850.38;16129696;19;131352;-43
2022/12/10 06:24:20;;;;;;;2.85;1.73;;;;;;;17.42;37.66;100851.44;16128962;19;130223;-40
2022/12/10 06:29:42;;;;;;;2.40;1.95;;;;;;;17.41;37.57;100854.47;16128474;19;129301;-39
2022/12/10 06:35:04;;;;;;;2.20;1.80;;;;;;;17.41;37.95;100860.00;16127720;19;130459;-40
2022/12/10 06:40:25;;;;;;;2.85;1.70;;;;;;;17.44;37.69;100857.59;16125573;19;131063;-40
2022/12/10 06:45:47;;;;;;;2.28;1.75;;;;;;;17.81;37.53;100865.66;16129387;19;129074;-41
2022/12/10 06:51:11;;;;;;;2.35;1.75;;;;;;;18.48;36.93;100873.69;16129248;19;129924;-40
2022/12/10 06:56:32;;;;;;;1.85;1.60;;;;;;;19.10;35.79;100872.94;16127834;19;129458;-41
2022/12/10 07:01:54;;;;;;;2.50;1.75;;;;;;;19.68;35.42;100879.16;16127587;19;129855;-40
2022/12/10 07:07:16;;;;;;;2.47;2.03;;;;;;;20.12;34.97;100883.13;16125403;19;129540;-41
2022/12/10 07:12:38;;;;;;;2.58;1.90;;;;;;;20.27;34.47;100880.53;16126298;19;129535;-41
2022/12/10 07:18:00;;;;;;;2.08;1.77;;;;;;;20.31;34.32;100889.19;16127308;19;129584;-42
2022/12/10 07:23:22;;;;;;;2.67;2.00;;;;;;;20.21;34.28;100889.91;16123433;19;130377;-42
2022/12/10 07:28:43;;;;;;;2.40;2.00;;;;;;;20.08;34.43;100890.28;16125172;19;129689;-40
2022/12/10 07:34:14;;;;;;;2.80;1.95;;;;;;;19.91;34.83;100896.69;16124138;19;129399;-40
2022/12/10 07:39:36;;;;;;;3.33;2.40;;;;;;;19.75;34.56;100900.34;16126187;19;129982;-42
2022/12/10 07:44:58;;;;;;;3.05;2.53;;;;;;;19.57;35.07;100913.38;16125211;19;130540;-40
2022/12/10 07:50:19;;;;;;;3.58;2.25;;;;;;;19.42;35.15;100910.38;16123950;19;130468;-41
2022/12/10 07:55:41;;;;;;;2.97;2.15;;;;;;;19.26;35.46;100918.44;16123742;19;130492;-40
2022/12/10 08:01:11;;;;;;;3.20;2.40;;;;;;;19.13;35.45;100918.72;16122068;19;130159;-41
2022/12/10 08:06:32;;;;;;;2.97;2.40;;;;;;;18.99;35.29;100930.13;16121918;19;129744;-41
2022/12/10 08:11:54;;;;;;;2.80;2.33;;;;;;;18.88;35.62;100928.25;16124627;19;129770;-40
2022/12/10 08:17:16;;;;;;;3.45;2.58;;;;;;;18.80;35.92;100939.75;16121308;19;130592;-42
2022/12/10 08:22:38;;;;;;;8.73;3.55;;;;;;;18.72;35.51;100947.34;16122946;19;129546;-40
2022/12/10 08:28:02;;;;;;;13.88;4.40;;;;;;;18.75;35.19;100960.72;16121378;19;129575;-41
2022/12/10 08:33:24;;;;;;;7.30;4.70;;;;;;;18.98;35.05;100960.88;16118558;19;129957;-40
2022/12/10 08:38:46;;;;;;;10.90;4.90;;;;;;;19.33;34.69;100952.38;16119703;19;129792;-40
2022/12/10 08:44:08;;;;;;;9.13;4.95;;;;;;;19.74;34.21;100943.06;16119836;19;129895;-40
2022/12/10 08:49:29;;;;;;;10.63;4.22;;;;;;;20.05;33.44;100954.69;16120322;19;130315;-40
2022/12/10 08:54:51;;;;;;;7.22;4.50;;;;;;;20.30;33.34;100956.97;16119883;19;129473;-39
2022/12/10 09:00:14;;;;;;;8.02;4.55;;;;;;;20.54;32.85;100965.06;16117525;19;129749;-39
2022/12/10 09:05:36;;;;;;;9.50;4.93;;;;;;;20.74;32.80;100970.03;16119844;19;129380;-39
2022/12/10 09:10:58;;;;;;;6.68;5.15;;;;;;;20.83;32.45;100962.94;16119093;19;129680;-42
2022/12/10 09:16:20;;;;;;;6.65;4.60;;;;;;;20.88;32.56;100963.00;16118058;19;130699;-40
2022/12/10 09:21:42;;;;;;;8.38;4.22;;;;;;;20.84;32.54;100972.94;16117897;19;129853;-39
2022/12/10 09:27:04;;;;;;;8.52;5.40;;;;;;;20.73;32.52;100985.03;16119383;19;129168;-40
2022/12/10 09:32:25;;;;;;;9.68;5.10;;;;;;;20.58;32.48;100989.28;16117096;19;129317;-40
2022/12/10 09:37:47;;;;;;;19.70;5.70;;;;;;;20.40;32.92;100986.84;16118194;19;129814;-41
2022/12/10 09:43:26;;;;;;;16.70;5.18;;;;;;;20.27;33.38;101000.00;16121839;19;129534;-42
2022/12/10 09:49:01;;;;;;;10.18;6.15;;;;;;;20.09;33.57;101003.91;16132861;19;129919;-40
2022/12/10 09:54:45;;;;;;;14.83;5.80;;;;;;;19.99;33.44;101018.47;16130157;19;129866;-40
2022/12/10 10:00:32;;;;;;;17.80;6.78;;;;;;;19.89;33.25;101009.94;16129685;19;129940;-41
2022/12/10 10:05:56;;;;;;;31.90;7.93;;;;;;;19.79;33.79;101010.59;16126477;19;133308;-40
2022/12/10 10:11:23;;;;;;;30.80;7.28;;;;;;;19.73;33.32;101014.41;16129043;19;129254;-40
2022/12/10 10:16:50;;;;;;;29.55;7.63;;;;;;;19.65;33.85;101009.25;16130361;19;129479;-40
2022/12/10 10:22:12;;;;;;;26.60;7.28;;;;;;;19.56;33.47;101005.22;16130020;19;129842;-40
2022/12/10 10:27:33;;;;;;;23.38;7.70;;;;;;;19.52;33.33;101010.44;16130752;19;129286;-40
2022/12/10 10:32:57;;;;;;;22.05;8.02;;;;;;;19.47;33.35;101010.31;16125621;19;130341;-42
2022/12/10 10:38:25;;;;;;;21.42;7.95;;;;;;;19.40;33.47;101009.66;16124374;19;130038;-40
2022/12/10 10:43:54;;;;;;;22.73;7.25;;;;;;;19.33;33.30;101007.88;16128533;19;129505;-43
2022/12/10 10:49:26;;;;;;;25.13;6.82;;;;;;;19.29;33.71;101005.84;16123398;19;129906;-41
2022/12/10 10:54:48;;;;;;;21.60;6.68;;;;;;;19.28;33.79;101007.78;16123623;19;129836;-38
2022/12/10 11:00:24;;;;;;;17.88;6.70;;;;;;;19.36;33.77;101015.69;16122476;19;131289;-41
2022/12/10 11:05:49;;;;;;;18.70;8.05;;;;;;;19.43;33.19;101018.31;16123954;19;129443;-42
2022/12/10 11:11:18;;;;;;;15.33;7.17;;;;;;;19.56;32.71;101005.22;16124037;19;129671;-43
2022/12/10 11:16:40;;;;;;;15.48;6.18;;;;;;;19.76;32.98;101007.50;16127953;19;131546;-41
2022/12/10 11:22:23;;;;;;;14.68;5.38;;;;;;;19.96;32.79;100993.94;16121964;19;130392;-40
2022/12/10 11:27:58;;;;;;;10.65;5.03;;;;;;;20.13;32.40;100995.91;16127631;19;130086;-43
2022/12/10 11:33:41;;;;;;;11.85;5.10;;;;;;;20.25;32.50;100993.84;16125015;19;134886;-47
2022/12/10 11:39:21;;;;;;;13.52;5.13;;;;;;;20.33;32.47;100986.16;16124125;19;130039;-40
2022/12/10 11:44:54;;;;;;;8.20;4.53;;;;;;;20.31;32.77;100982.81;16122296;19;129570;-42
2022/12/10 11:50:32;;;;;;;13.23;5.03;;;;;;;20.24;32.39;100989.38;16119924;19;129387;-44
2022/12/10 11:56:08;;;;;;;10.20;4.57;;;;;;;20.14;32.65;100995.63;16123079;19;129764;-43
2022/12/10 12:01:38;;;;;;;;;;;;;;;19.99;33.17;100995.38;16124243;19;129433;-42
2022/12/10 12:07:27;;;;;;;6.63;3.65;;;;;;;19.88;33.18;100986.03;16116642;19;130341;-41
2022/12/10 12:13:00;;;;;;;5.18;3.50;;;;;;;19.75;33.62;100991.94;16122643;19;131330;-40
2022/12/10 12:18:41;;;;;;;7.88;3.75;;;;;;;19.59;33.35;100988.91;16120906;19;129621;-52
2022/12/10 12:24:16;;;;;;;8.90;3.60;;;;;;;19.48;33.59;100995.38;16121869;19;129565;-43
2022/12/10 12:29:58;;;;;;;9.25;3.53;;;;;;;19.38;34.07;100987.72;16121604;19;129532;-49
2022/12/10 12:35:46;;;;;;;5.90;3.63;;;;;;;19.27;33.84;100989.47;16121542;19;133581;-50
2022/12/10 12:41:15;;;;;;;7.47;3.50;;;;;;;19.18;34.12;100991.75;16119314;19;129094;-41
2022/12/10 12:46:42;;;;;;;6.72;3.38;;;;;;;19.08;34.59;100991.56;16120293;19;129494;-39
2022/12/10 12:52:42;;;;;;;6.03;3.85;;;;;;;19.00;34.46;101001.13;16119107;19;130496;-40
2022/12/10 12:58:24;;;;;;;5.97;3.63;;;;;;;18.89;34.61;100990.91;16120545;19;129807;-39
2022/12/10 13:03:48;;;;;;;6.13;3.45;;;;;;;18.85;34.75;100998.88;16117278;19;130410;-40
2022/12/10 13:09:12;;;;;;;5.32;3.10;;;;;;;18.97;35.10;101006.31;16117291;19;130670;-40
2022/12/10 13:14:53;;;;;;;8.82;3.78;;;;;;;19.11;34.80;101004.94;16118600;19;134272;-39
2022/12/10 13:20:27;;;;;;;13.68;4.70;;;;;;;19.40;34.45;101012.44;16132991;19;131498;-41
2022/12/10 13:25:48;;;;;;;6.82;3.60;;;;;;;19.84;33.70;101018.19;16130678;19;129581;-42
2022/12/10 13:31:10;;;;;;;7.05;3.60;;;;;;;20.34;33.49;101010.06;16129277;19;129932;-40
2022/12/10 13:36:31;;;;;;;13.45;3.80;;;;;;;20.75;33.14;101016.19;16132708;19;129510;-41
2022/12/10 13:47:51;;;;;;;7.55;3.97;;;;;;;21.19;32.40;101016.16;16132366;19;129499;-40
2022/12/10 13:53:15;;;;;;;18.48;4.32;;;;;;;21.27;32.67;101016.81;16133662;19;130135;-41
2022/12/10 13:58:42;;;;;;;10.07;3.43;;;;;;;21.21;32.66;101025.09;16134299;19;129372;-40
2022/12/10 14:04:22;;;;;;;12.07;3.80;;;;;;;21.11;32.58;101021.38;16129233;19;129462;-41
2022/12/10 14:09:57;;;;;;;6.85;4.07;;;;;;;20.93;32.50;101020.59;16129300;19;130423;-41
2022/12/10 14:15:28;;;;;;;10.85;4.80;;;;;;;20.75;33.02;101017.03;16129329;19;129644;-41
2022/12/10 14:20:53;;;;;;;14.50;5.05;;;;;;;20.56;33.19;101018.44;16124187;19;131679;-41
2022/12/10 14:26:19;;;;;;;14.77;5.10;;;;;;;20.39;33.17;101036.00;16127297;19;132105;-43
2022/12/10 14:31:46;;;;;;;16.70;5.00;;;;;;;20.25;33.61;101029.97;16121450;19;130693;-43
2022/12/10 14:37:13;;;;;;;9.60;4.70;;;;;;;20.11;33.80;101028.63;16116583;19;129958;-39
2022/12/10 14:42:39;;;;;;;8.73;4.28;;;;;;;19.98;34.17;101029.81;16113050;19;130421;-42
2022/12/10 14:48:00;;;;;;;;;;;;;;;19.81;33.70;101030.63;16127524;19;129589;-41
2022/12/10 14:53:25;;;;;;;19.48;8.80;;;;;;;19.72;33.07;101045.16;16126889;19;129291;-42
2022/12/10 14:59:03;;;;;;;19.77;8.90;;;;;;;19.59;33.08;101044.41;16126350;19;130351;-42
2022/12/10 15:04:38;;;;;;;27.33;8.00;;;;;;;19.47;33.70;101040.84;16126204;19;129290;-41
2022/12/10 15:10:04;;;;;;;40.30;9.95;;;;;;;19.39;33.54;101031.00;16123830;19;131335;-39
2022/12/10 15:15:35;;;;;;;175.98;21.95;;;;;;;19.31;33.40;101036.94;16123925;19;129396;-39
2022/12/10 15:21:24;;;;;;;204.07;25.02;;;;;;;19.23;33.27;101052.06;16121230;19;130243;-39
2022/12/10 15:26:50;;;;;;;149.82;20.05;;;;;;;19.17;34.17;101045.53;16121625;19;130681;-38
2022/12/10 15:32:19;;;;;;;148.05;18.52;;;;;;;19.15;34.23;101049.66;16120627;19;129434;-37
2022/12/10 15:37:41;;;;;;;122.88;18.27;;;;;;;19.17;34.34;101055.81;16125178;19;129428;-54
2022/12/10 15:43:24;;;;;;;113.97;17.00;;;;;;;19.33;35.33;101065.28;16121800;19;130729;-58
2022/12/10 15:48:46;;;;;;;86.97;14.63;;;;;;;19.47;35.85;101057.50;16124731;19;129261;-59
2022/12/10 15:54:31;;;;;;;73.55;14.35;;;;;;;19.69;34.38;101058.44;16123207;19;129581;-58
2022/12/10 15:59:56;;;;;;;67.15;12.93;;;;;;;19.85;33.19;101053.19;16122378;19;129994;-58
2022/12/10 16:05:21;;;;;;;64.50;13.17;;;;;;;20.04;32.76;101050.19;16122774;19;129562;-58
2022/12/10 16:10:44;;;;;;;57.03;13.85;;;;;;;20.20;32.15;101054.88;16124385;19;130238;-58
2022/12/10 16:16:08;;;;;;;64.90;13.55;;;;;;;20.31;32.15;101066.19;16122979;19;130138;-58
2022/12/10 16:21:30;;;;;;;56.10;12.77;;;;;;;20.35;31.66;101064.53;16118652;19;129822;-58
2022/12/10 16:26:52;;;;;;;38.88;11.40;;;;;;;20.32;31.82;101062.28;16123197;19;129269;-57
2022/12/10 16:32:13;;;;;;;49.25;11.93;;;;;;;20.26;31.54;101070.53;16121709;19;129877;-57
2022/12/10 16:37:35;;;;;;;53.88;12.50;;;;;;;20.20;31.26;101056.81;16125726;19;129893;-59
2022/12/10 16:42:57;;;;;;;49.15;12.52;;;;;;;20.17;31.48;101060.09;16127569;19;129785;-56
2022/12/10 16:48:19;;;;;;;63.70;12.27;;;;;;;20.16;31.16;101058.41;16121471;19;130584;-53
2022/12/10 16:53:41;;;;;;;52.80;12.90;;;;;;;20.13;31.47;101065.34;16131595;19;130470;-58
2022/12/10 16:59:03;;;;;;;54.35;12.63;;;;;;;20.11;31.44;101084.19;16133348;19;129806;-48
2022/12/10 17:04:25;;;;;;;62.08;14.13;;;;;;;20.09;32.04;101075.25;16132453;19;130645;-55
2022/12/10 17:09:47;;;;;;;36.92;15.10;;;;;;;20.03;32.71;101071.56;16133912;19;130115;-53
2022/12/10 17:15:13;;;;;;;46.00;15.75;;;;;;;19.97;32.86;101078.09;16134212;19;129465;-49
2022/12/10 17:20:38;;;;;;;35.55;13.50;;;;;;;19.88;33.42;101069.34;16135622;19;130140;-51
2022/12/10 17:26:00;;;;;;;39.70;13.73;;;;;;;19.81;33.65;101074.22;16133966;19;132660;-54
2022/12/10 17:31:22;;;;;;;37.92;13.57;;;;;;;19.76;34.10;101065.78;16132398;19;130284;-54
2022/12/10 17:36:44;;;;;;;32.03;12.38;;;;;;;19.68;33.90;101076.22;16132401;19;129007;-57
2022/12/10 17:42:07;;;;;;;43.67;13.90;;;;;;;19.63;34.73;101076.13;16132703;19;129483;-54
2022/12/10 17:47:31;;;;;;;45.45;13.45;;;;;;;19.59;34.98;101072.16;16130593;19;130227;-53
2022/12/10 17:52:52;;;;;;;66.18;13.30;;;;;;;19.55;35.17;101065.44;16134321;19;129358;-51
2022/12/10 17:58:15;;;;;;;68.15;14.38;;;;;;;19.54;34.95;101066.53;16137018;19;129372;-58
2022/12/10 18:03:38;;;;;;;64.35;14.23;;;;;;;19.60;35.29;101068.28;16142926;19;129622;-63
2022/12/10 18:09:00;;;;;;;64.32;12.95;;;;;;;19.80;35.32;101073.38;16142452;19;130257;-60
2022/12/10 18:14:22;;;;;;;55.47;13.05;;;;;;;19.98;35.10;101077.84;16142099;19;129585;-54
2022/12/10 18:19:44;;;;;;;54.72;12.02;;;;;;;20.07;34.93;101069.09;16146375;19;129916;-60
2022/12/10 18:25:13;;;;;;;67.18;13.40;;;;;;;20.12;34.69;101064.47;16130144;19;129892;-60
2022/12/10 18:30:42;;;;;;;45.95;11.50;;;;;;;20.19;34.76;101078.19;16131042;19;129583;-55
2022/12/10 18:36:04;;;;;;;52.78;12.85;;;;;;;20.28;34.35;101079.47;16128111;19;129214;-59
2022/12/10 18:41:26;;;;;;;43.75;10.48;;;;;;;20.37;34.53;101081.81;16135881;19;129679;-59
2022/12/10 18:46:54;;;;;;;45.15;10.75;;;;;;;20.42;34.50;101077.16;16126720;19;130236;-58
2022/12/10 18:52:17;;;;;;;38.10;10.75;;;;;;;20.45;33.91;101084.16;16130456;19;129897;-59
2022/12/10 18:57:39;;;;;;;35.55;9.93;;;;;;;20.46;33.90;101080.28;16130037;19;130508;-59
2022/12/10 19:03:06;;;;;;;50.08;10.77;;;;;;;20.47;33.74;101070.84;16131142;19;130431;-59
2022/12/10 19:08:28;;;;;;;32.47;9.52;;;;;;;20.49;34.30;101071.44;16133248;19;129383;-60
2022/12/10 19:13:50;;;;;;;35.78;9.05;;;;;;;20.51;34.12;101072.03;16132242;19;129360;-60
2022/12/10 19:19:14;;;;;;;26.33;8.40;;;;;;;20.74;34.11;101072.88;16133208;19;129342;-57
2022/12/10 19:24:36;;;;;;;28.17;8.77;;;;;;;21.02;33.57;101071.88;16136104;19;130660;-60
2022/12/10 19:29:57;;;;;;;18.45;7.53;;;;;;;21.28;33.46;101063.03;16132774;19;129368;-60
2022/12/10 19:35:22;;;;;;;28.77;8.63;;;;;;;21.46;33.33;101048.72;16125235;19;130127;-60
2022/12/10 19:40:44;;;;;;;29.93;8.03;;;;;;;21.58;33.01;101047.75;16121524;19;129531;-58
2022/12/10 19:46:15;;;;;;;27.67;8.05;;;;;;;21.63;33.04;101050.59;16123052;19;129449;-61
2022/12/10 19:51:37;;;;;;;27.17;8.18;;;;;;;21.53;32.68;101045.78;16127677;19;129687;-60
2022/12/10 19:56:58;;;;;;;25.08;8.35;;;;;;;21.46;32.41;101056.25;16127342;19;129608;-61
2022/12/10 20:02:20;;;;;;;23.13;8.05;;;;;;;21.40;32.93;101058.16;16125176;19;130681;-60
2022/12/10 20:07:42;;;;;;;23.98;7.25;;;;;;;21.37;32.96;101058.66;16123519;19;129496;-60
2022/12/10 20:13:04;;;;;;;25.70;8.35;;;;;;;21.38;32.86;101054.78;16125025;19;129565;-59
2022/12/10 20:18:27;;;;;;;19.35;7.20;;;;;;;21.46;33.40;101057.09;16124159;19;129677;-59
2022/12/10 20:23:49;;;;;;;27.98;7.10;;;;;;;21.56;33.62;101061.94;16122103;19;129812;-59
2022/12/10 20:29:15;;;;;;;21.58;7.32;;;;;;;21.59;33.56;101057.78;16116370;19;130301;-60
2022/12/10 20:34:39;;;;;;;15.45;6.85;;;;;;;21.57;33.40;101054.44;16120750;19;129622;-59
2022/12/10 20:40:01;;;;;;;18.73;7.05;;;;;;;21.53;33.04;101068.03;16121222;19;129663;-59
2022/12/10 20:45:43;;;;;;;22.00;7.25;;;;;;;21.49;33.08;101073.28;16121196;19;130409;-60
2022/12/10 20:51:05;;;;;;;23.13;7.95;;;;;;;21.46;32.85;101068.22;16122144;19;129533;-60
2022/12/10 20:56:26;;;;;;;16.60;7.20;;;;;;;21.45;32.96;101074.06;16121813;19;129979;-60
2022/12/10 21:01:48;;;;;;;14.60;7.03;;;;;;;21.40;33.18;101071.19;16127236;19;129215;-65
2022/12/10 21:07:14;;;;;;;20.27;7.38;;;;;;;21.29;32.81;101073.06;16133077;19;129436;-67
2022/12/10 21:12:36;;;;;;;15.68;6.85;;;;;;;21.13;32.64;101066.44;16145977;19;130702;-68
2022/12/10 21:17:59;;;;;;;24.25;7.40;;;;;;;20.96;32.81;101063.75;16134761;19;129349;-62
2022/12/10 21:23:27;;;;;;;22.33;7.22;;;;;;;20.82;33.22;101055.78;16117019;19;130311;-62
2022/12/10 21:28:49;;;;;;;18.00;7.03;;;;;;;20.69;32.99;101050.56;16117785;19;129010;-62
2022/12/10 21:34:11;;;;;;;18.33;6.70;;;;;;;20.56;33.07;101060.97;16117107;19;129323;-62
2022/12/10 21:39:33;;;;;;;20.75;6.65;;;;;;;20.45;33.62;101061.91;16127048;19;129626;-62
2022/12/10 21:44:55;;;;;;;14.13;6.40;;;;;;;20.35;33.67;101056.22;16132233;19;129264;-62
2022/12/10 21:50:17;;;;;;;16.40;5.75;;;;;;;20.24;33.70;101058.84;16134193;19;129554;-62
2022/12/10 21:55:42;;;;;;;13.48;6.05;;;;;;;20.15;33.77;101057.59;16132094;19;130388;-63
2022/12/10 22:01:05;;;;;;;16.03;5.80;;;;;;;20.04;33.81;101056.56;16131699;19;129497;-62
2022/12/10 22:06:27;;;;;;;13.07;5.57;;;;;;;19.94;34.08;101048.06;16132398;19;129781;-62
2022/12/10 22:11:49;;;;;;;17.90;5.45;;;;;;;19.87;33.95;101047.38;16132913;19;129780;-62
2022/12/10 22:17:11;;;;;;;11.60;5.00;;;;;;;19.79;34.34;101046.69;16133181;19;129361;-62
2022/12/10 22:22:34;;;;;;;11.68;5.57;;;;;;;19.74;34.38;101046.63;16132030;19;129731;-62
2022/12/10 22:27:55;;;;;;;11.45;5.65;;;;;;;19.64;34.70;101046.41;16131138;19;129277;-62
2022/12/10 22:33:17;;;;;;;12.52;5.28;;;;;;;19.57;34.69;101035.47;16127275;19;129477;-62
2022/12/10 22:38:39;;;;;;;12.65;5.70;;;;;;;19.52;34.28;101046.50;16127133;19;129657;-62
2022/12/10 22:44:01;;;;;;;13.18;5.32;;;;;;;19.44;34.44;101052.47;16126382;19;130556;-62
2022/12/10 22:49:22;;;;;;;8.02;4.80;;;;;;;19.39;34.28;101047.63;16125551;19;129635;-61
2022/12/10 22:54:44;;;;;;;11.70;5.22;;;;;;;19.37;34.73;101047.91;16130622;19;129053;-62
2022/12/10 23:00:11;;;;;;;14.57;5.50;;;;;;;19.35;34.90;101047.28;16128286;19;129527;-61
2022/12/10 23:05:34;;;;;;;10.05;4.95;;;;;;;19.33;34.93;101046.69;16123756;19;129674;-60
2022/12/10 23:10:56;;;;;;;10.20;4.70;;;;;;;19.28;34.74;101054.09;16125811;19;130105;-61
2022/12/10 23:16:18;;;;;;;10.93;4.18;;;;;;;19.23;34.71;101065.91;16125859;19;129694;-61
2022/12/10 23:21:40;;;;;;;9.88;4.82;;;;;;;19.18;35.00;101061.09;16128822;19;134356;-61
2022/12/10 23:27:02;;;;;;;12.95;4.57;;;;;;;19.13;34.99;101052.69;16126798;19;129272;-62
2022/12/10 23:32:23;;;;;;;9.18;3.78;;;;;;;19.09;35.27;101059.81;16124212;19;129290;-61
2022/12/10 23:37:46;;;;;;;7.47;3.85;;;;;;;19.05;34.94;101062.22;16126000;19;129853;-61
2022/12/10 23:43:09;;;;;;;8.68;4.00;;;;;;;19.02;35.43;101068.25;16123117;19;129460;-61
2022/12/10 23:48:31;;;;;;;11.25;4.30;;;;;;;18.99;35.21;101063.19;16125667;19;129530;-61
2022/12/10 23:53:52;;;;;;;6.93;4.05;;;;;;;18.95;35.10;101067.56;16125157;19;129441;-61
2022/12/10 23:59:14;;;;;;;8.85;4.10;;;;;;;18.90;35.57;101064.69;16125326;19;129868;-61
